Vasiliy Bozhenko — URHP — position and weather

sailwx.info

Track history (hours):
 
Tides and Currents Weather Stations Pressure Air Temp Water Temp Dewpoint Dewpoint Depression Visibility Wind Speed Wind Dir Waves Ship Positions

Vasiliy Bozhenko

Last reported at 2014-Sep-17 09:32 UTC. Time now 2014-Sep-22 04:15 UTC.
Position N 40°57' E 028°55'.

Length 114 m; draft 3.8 m.

Type: Cargo ship. MMSI: 272085000.

Date/timePositionNaut miles runAvg speedWind from/ knotsBaromVisibWave heightAir tempDewpointWater temp
2014-Sep-17 09:32N 40°57' E 028°55'1 0.1
2014-Sep-17 02:28N 40°58' E 028°56'0 0.0
2014-Sep-17 01:32N 40°58' E 028°56'0 0.0
2014-Sep-17 00:32N 40°58' E 028°56'0 0.0
2014-Sep-16 23:29N 40°58' E 028°56'0 0.0
2014-Sep-16 21:21N 40°58' E 028°56'3 3.4
2014-Sep-16 20:34N 40°59' E 028°59'  
2014-Sep-14 15:33N 46°36' E 031°44'7 7.2
2014-Sep-14 14:33N 46°34' E 031°54'9 7.4
2014-Sep-14 13:23N 46°32' E 032°06'145 4.7
2014-Sep-13 06:33N 47°46' E 035°10'6 6.1
2014-Sep-13 05:33N 47°51' E 035°05'1 1.2
2014-Sep-13 04:33N 47°52' E 035°06'1 0.8
2014-Sep-13 03:33N 47°53' E 035°07'0 0.0
2014-Sep-13 02:33N 47°53' E 035°07'0 0.0
2014-Sep-13 01:33N 47°53' E 035°07'0 0.0
2014-Sep-13 00:33N 47°53' E 035°07'0 0.0
2014-Sep-12 23:33N 47°53' E 035°07'0 0.0
2014-Sep-12 22:33N 47°53' E 035°07'0 0.0
2014-Sep-12 21:33N 47°53' E 035°07'0 0.0
2014-Sep-12 20:33N 47°53' E 035°07'0 0.0
2014-Sep-12 19:33N 47°53' E 035°07'0 0.0
2014-Sep-12 18:33N 47°53' E 035°07'0 0.0
2014-Sep-12 17:33N 47°53' E 035°07'0 0.0
2014-Sep-12 16:33N 47°53' E 035°07'0 0.0
2014-Sep-12 15:33N 47°53' E 035°07'0 0.0
2014-Sep-12 14:33N 47°53' E 035°07'0 0.0
2014-Sep-12 13:33N 47°53' E 035°07'0 0.0
2014-Sep-12 12:33N 47°53' E 035°07'0 0.0
2014-Sep-12 11:33N 47°53' E 035°07'0 0.0
2014-Sep-12 10:33N 47°53' E 035°07'0 0.0
2014-Sep-12 09:33N 47°53' E 035°07'0 0.0
2014-Sep-12 08:33N 47°53' E 035°07'0 0.0
2014-Sep-12 07:33N 47°53' E 035°07'0 0.0
2014-Sep-12 06:33N 47°53' E 035°07'0 0.0
2014-Sep-12 05:33N 47°53' E 035°07'0 0.0
2014-Sep-12 04:33N 47°53' E 035°07'0 0.0
2014-Sep-12 03:33N 47°53' E 035°07'0 0.0
2014-Sep-12 02:33N 47°53' E 035°07'0 0.0
2014-Sep-12 01:33N 47°53' E 035°07'0 0.0
2014-Sep-12 00:33N 47°53' E 035°07'0 0.0
2014-Sep-11 23:33N 47°53' E 035°07'0 0.0
2014-Sep-11 22:33N 47°53' E 035°07'0 0.0
2014-Sep-11 21:33N 47°53' E 035°07'0 0.0
2014-Sep-11 20:33N 47°53' E 035°07'0 0.0
2014-Sep-11 19:33N 47°53' E 035°07'0 0.0
2014-Sep-11 18:33N 47°53' E 035°07'0 0.0
2014-Sep-11 17:33N 47°53' E 035°07'0 0.0
2014-Sep-11 16:33N 47°53' E 035°07'0 0.0
2014-Sep-11 15:33N 47°53' E 035°07'0 0.0
2014-Sep-11 14:33N 47°53' E 035°07'0 0.0
2014-Sep-11 13:33N 47°53' E 035°07'0 0.0
2014-Sep-11 12:33N 47°53' E 035°07'0 0.0
2014-Sep-11 11:33N 47°53' E 035°07'0 0.0
2014-Sep-11 10:33N 47°53' E 035°07'0 0.0
2014-Sep-11 09:33N 47°53' E 035°07'0 0.0
2014-Sep-11 08:33N 47°53' E 035°07'0 0.0
2014-Sep-11 07:33N 47°53' E 035°07'0 0.0
2014-Sep-11 06:33N 47°53' E 035°07'0 0.0
2014-Sep-11 05:33N 47°53' E 035°07'0 0.0
2014-Sep-11 04:33N 47°53' E 035°07'0 0.0
2014-Sep-11 03:33N 47°53' E 035°07'0 0.0
2014-Sep-11 02:33N 47°53' E 035°07'0 0.0
2014-Sep-11 01:33N 47°53' E 035°07'0 0.0
2014-Sep-11 00:33N 47°53' E 035°07'0 0.0
2014-Sep-10 23:33N 47°53' E 035°07'0 0.0
2014-Sep-10 22:33N 47°53' E 035°07'0 0.0
2014-Sep-10 21:33N 47°53' E 035°07'0 0.0
2014-Sep-10 20:33N 47°53' E 035°07'0 0.0
2014-Sep-10 19:33N 47°53' E 035°07'0 0.0
2014-Sep-10 18:33N 47°53' E 035°07'0 0.0
2014-Sep-10 17:33N 47°53' E 035°07'0 0.0
2014-Sep-10 16:33N 47°53' E 035°07'0 0.0
2014-Sep-10 15:33N 47°53' E 035°07'0 0.0
2014-Sep-10 14:33N 47°53' E 035°07'0 0.0
2014-Sep-10 13:33N 47°53' E 035°07'0 0.0
2014-Sep-10 12:33N 47°53' E 035°07'0 0.1
2014-Sep-10 11:33N 47°53' E 035°07'0 0.0
2014-Sep-10 10:33N 47°53' E 035°07'0 0.0
2014-Sep-10 09:04N 47°53' E 035°07'0 0.0
2014-Sep-10 08:33N 47°53' E 035°07'0 0.0
2014-Sep-10 07:33N 47°53' E 035°07'1 0.9
2014-Sep-10 06:33N 47°52' E 035°06'2 1.5
2014-Sep-10 05:33N 47°51' E 035°05'7 6.5
2014-Sep-10 04:33N 47°45' E 035°10'133 5.1
2014-Sep-09 02:32N 46°33' E 032°24'7 6.9
2014-Sep-09 01:34N 46°33' E 032°15'8 7.2
2014-Sep-09 00:24N 46°32' E 032°03'6 7.4
2014-Sep-08 23:34N 46°34' E 031°54'7 7.0
2014-Sep-08 22:34N 46°36' E 031°44'9 7.2
2014-Sep-08 21:21N 46°35' E 031°31'  
Track history (hours):
 
Tides and Currents Weather Stations Pressure Air Temp Water Temp Dewpoint Dewpoint Depression Visibility Wind Speed Wind Dir Waves Ship Positions

Vasiliy Bozhenko

Last reported at 2014-Sep-17 09:32 UTC. Time now 2014-Sep-22 04:15 UTC.
Position N 40°57' E 028°55'.

Length 114 m; draft 3.8 m.

Type: Cargo ship. MMSI: 272085000.

Date/timePositionNaut miles runAvg speedWind from/ knotsBaromVisibWave heightAir tempDewpointWater temp
2014-Sep-17 09:32N 40°57' E 028°55'1 0.1
2014-Sep-17 02:28N 40°58' E 028°56'0 0.0
2014-Sep-17 01:32N 40°58' E 028°56'0 0.0
2014-Sep-17 00:32N 40°58' E 028°56'0 0.0
2014-Sep-16 23:29N 40°58' E 028°56'0 0.0
2014-Sep-16 21:21N 40°58' E 028°56'3 3.4
2014-Sep-16 20:34N 40°59' E 028°59'  
2014-Sep-14 15:33N 46°36' E 031°44'7 7.2
2014-Sep-14 14:33N 46°34' E 031°54'9 7.4
2014-Sep-14 13:23N 46°32' E 032°06'145 4.7
2014-Sep-13 06:33N 47°46' E 035°10'6 6.1
2014-Sep-13 05:33N 47°51' E 035°05'1 1.2
2014-Sep-13 04:33N 47°52' E 035°06'1 0.8
2014-Sep-13 03:33N 47°53' E 035°07'0 0.0
2014-Sep-13 02:33N 47°53' E 035°07'0 0.0
2014-Sep-13 01:33N 47°53' E 035°07'0 0.0
2014-Sep-13 00:33N 47°53' E 035°07'0 0.0
2014-Sep-12 23:33N 47°53' E 035°07'0 0.0
2014-Sep-12 22:33N 47°53' E 035°07'0 0.0
2014-Sep-12 21:33N 47°53' E 035°07'0 0.0
2014-Sep-12 20:33N 47°53' E 035°07'0 0.0
2014-Sep-12 19:33N 47°53' E 035°07'0 0.0
2014-Sep-12 18:33N 47°53' E 035°07'0 0.0
2014-Sep-12 17:33N 47°53' E 035°07'0 0.0
2014-Sep-12 16:33N 47°53' E 035°07'0 0.0
2014-Sep-12 15:33N 47°53' E 035°07'0 0.0
2014-Sep-12 14:33N 47°53' E 035°07'0 0.0
2014-Sep-12 13:33N 47°53' E 035°07'0 0.0
2014-Sep-12 12:33N 47°53' E 035°07'0 0.0
2014-Sep-12 11:33N 47°53' E 035°07'0 0.0
2014-Sep-12 10:33N 47°53' E 035°07'0 0.0
2014-Sep-12 09:33N 47°53' E 035°07'0 0.0
2014-Sep-12 08:33N 47°53' E 035°07'0 0.0
2014-Sep-12 07:33N 47°53' E 035°07'0 0.0
2014-Sep-12 06:33N 47°53' E 035°07'0 0.0
2014-Sep-12 05:33N 47°53' E 035°07'0 0.0
2014-Sep-12 04:33N 47°53' E 035°07'0 0.0
2014-Sep-12 03:33N 47°53' E 035°07'0 0.0
2014-Sep-12 02:33N 47°53' E 035°07'0 0.0
2014-Sep-12 01:33N 47°53' E 035°07'0 0.0
2014-Sep-12 00:33N 47°53' E 035°07'0 0.0
2014-Sep-11 23:33N 47°53' E 035°07'0 0.0
2014-Sep-11 22:33N 47°53' E 035°07'0 0.0
2014-Sep-11 21:33N 47°53' E 035°07'0 0.0
2014-Sep-11 20:33N 47°53' E 035°07'0 0.0
2014-Sep-11 19:33N 47°53' E 035°07'0 0.0
2014-Sep-11 18:33N 47°53' E 035°07'0 0.0
2014-Sep-11 17:33N 47°53' E 035°07'0 0.0
2014-Sep-11 16:33N 47°53' E 035°07'0 0.0
2014-Sep-11 15:33N 47°53' E 035°07'0 0.0
2014-Sep-11 14:33N 47°53' E 035°07'0 0.0
2014-Sep-11 13:33N 47°53' E 035°07'0 0.0
2014-Sep-11 12:33N 47°53' E 035°07'0 0.0
2014-Sep-11 11:33N 47°53' E 035°07'0 0.0
2014-Sep-11 10:33N 47°53' E 035°07'0 0.0
2014-Sep-11 09:33N 47°53' E 035°07'0 0.0
2014-Sep-11 08:33N 47°53' E 035°07'0 0.0
2014-Sep-11 07:33N 47°53' E 035°07'0 0.0
2014-Sep-11 06:33N 47°53' E 035°07'0 0.0
2014-Sep-11 05:33N 47°53' E 035°07'0 0.0
2014-Sep-11 04:33N 47°53' E 035°07'0 0.0
2014-Sep-11 03:33N 47°53' E 035°07'0 0.0
2014-Sep-11 02:33N 47°53' E 035°07'0 0.0
2014-Sep-11 01:33N 47°53' E 035°07'0 0.0
2014-Sep-11 00:33N 47°53' E 035°07'0 0.0
2014-Sep-10 23:33N 47°53' E 035°07'0 0.0
2014-Sep-10 22:33N 47°53' E 035°07'0 0.0
2014-Sep-10 21:33N 47°53' E 035°07'0 0.0
2014-Sep-10 20:33N 47°53' E 035°07'0 0.0
2014-Sep-10 19:33N 47°53' E 035°07'0 0.0
2014-Sep-10 18:33N 47°53' E 035°07'0 0.0
2014-Sep-10 17:33N 47°53' E 035°07'0 0.0
2014-Sep-10 16:33N 47°53' E 035°07'0 0.0
2014-Sep-10 15:33N 47°53' E 035°07'0 0.0
2014-Sep-10 14:33N 47°53' E 035°07'0 0.0
2014-Sep-10 13:33N 47°53' E 035°07'0 0.0
2014-Sep-10 12:33N 47°53' E 035°07'0 0.1
2014-Sep-10 11:33N 47°53' E 035°07'0 0.0
2014-Sep-10 10:33N 47°53' E 035°07'0 0.0
2014-Sep-10 09:04N 47°53' E 035°07'0 0.0
2014-Sep-10 08:33N 47°53' E 035°07'0 0.0
2014-Sep-10 07:33N 47°53' E 035°07'1 0.9
2014-Sep-10 06:33N 47°52' E 035°06'2 1.5
2014-Sep-10 05:33N 47°51' E 035°05'7 6.5
2014-Sep-10 04:33N 47°45' E 035°10'133 5.1
2014-Sep-09 02:32N 46°33' E 032°24'7 6.9
2014-Sep-09 01:34N 46°33' E 032°15'8 7.2
2014-Sep-09 00:24N 46°32' E 032°03'6 7.4
2014-Sep-08 23:34N 46°34' E 031°54'7 7.0
2014-Sep-08 22:34N 46°36' E 031°44'9 7.2
2014-Sep-08 21:21N 46°35' E 031°31'  

Dump ship's entire track history